This is the latest recevied weather packets stored in our database for station/object N0BII-7. If no packets are shown the sender has not sent any weather packets the latest 10 day(s).
| Time | Temp. | Humidity | Pressure | Rain* | Wind** | Luminosity | Snow |
|---|---|---|---|---|---|---|---|
| 1788238588 | 21.67° C | 78% | 845.8 hPa | - | - | - | - |
| 1788145729 | 26.11° C | 65% | 846.3 hPa | - | - | - | - |
| 1788144341 | 24.44° C | 67% | 846.1 hPa | - | - | - | - |
| 1788143097 | 25.56° C | 67% | 846.6 hPa | - | - | - | - |
| 1788141499 | 26.11° C | 69% | 846.7 hPa | - | - | - | - |
| 1788102032 | 25.56° C | 68% | 846.1 hPa | - | - | - | - |
| 1788100608 | 23.33° C | 74% | 846.3 hPa | - | - | - | - |
| 1788012356 | 25° C | 63% | 846.5 hPa | - | - | - | - |
| 1788012056 | 25° C | 63% | 846.6 hPa | - | - | - | - |
| 1788011756 | 24.44° C | 63% | 846.6 hPa | - | - | - | - |
| 1788011156 | 24.44° C | 63% | 846.7 hPa | - | - | - | - |
| 1788009956 | 24.44° C | 63% | 846.6 hPa | - | - | - | - |
| 1788008756 | 25° C | 62% | 846.3 hPa | - | - | - | - |
| 1788008156 | 25° C | 62% | 846.4 hPa | - | - | - | - |
| 1788007856 | 25° C | 62% | 846.1 hPa | - | - | - | - |
| 1788007556 | 25° C | 62% | 846.1 hPa | - | - | - | - |
| 1788006356 | 25° C | 62% | 845.7 hPa | - | - | - | - |
| 1788005457 | 25° C | 62% | 845.7 hPa | - | - | - | - |
| 1788005156 | 25° C | 62% | 845.7 hPa | - | - | - | - |
| 1788004555 | 25° C | 62% | 845.5 hPa | - | - | - | - |
| 1788003956 | 25° C | 62% | 845.5 hPa | - | - | - | - |
| 1788002755 | 25° C | 62% | 845.3 hPa | - | - | - | - |
| 1788001855 | 25.56° C | 60% | 845.3 hPa | - | - | - | - |
| 1788001555 | 25° C | 62% | 845.2 hPa | - | - | - | - |
| 1787996264 | 22.78° C | 65% | 844.5 hPa | - | - | - | - |
* Rain since midnight (hover to see other rain measurements)
** Current wind speed in m/s (hover to see current wind gust speed)